sensor_id;sensor_type;location;lat;lon;timestamp;P1;durP1;ratioP1;P2;durP2;ratioP2
51718;SDS011;37795;53.236;5.704;2023-07-29T00:01:44;0.30;;;0.30;;
51718;SDS011;37795;53.236;5.704;2023-07-29T00:04:11;0.20;;;0.20;;
51718;SDS011;37795;53.236;5.704;2023-07-29T00:06:37;0.20;;;0.20;;
51718;SDS011;37795;53.236;5.704;2023-07-29T00:09:03;0.20;;;0.20;;
51718;SDS011;37795;53.236;5.704;2023-07-29T00:11:29;0.40;;;0.25;;
51718;SDS011;37795;53.236;5.704;2023-07-29T00:13:57;0.20;;;0.20;;
51718;SDS011;37795;53.236;5.704;2023-07-29T00:16:23;0.10;;;0.10;;
51718;SDS011;37795;53.236;5.704;2023-07-29T00:18:49;0.20;;;0.20;;
51718;SDS011;37795;53.236;5.704;2023-07-29T00:21:15;0.20;;;0.20;;
51718;SDS011;37795;53.236;5.704;2023-07-29T00:23:41;0.10;;;0.10;;
51718;SDS011;37795;53.236;5.704;2023-07-29T00:26:07;0.13;;;0.13;;
51718;SDS011;37795;53.236;5.704;2023-07-29T00:28:34;0.27;;;0.27;;
51718;SDS011;37795;53.236;5.704;2023-07-29T00:31:00;0.20;;;0.20;;
51718;SDS011;37795;53.236;5.704;2023-07-29T00:33:26;0.20;;;0.20;;
51718;SDS011;37795;53.236;5.704;2023-07-29T00:35:52;0.20;;;0.20;;
51718;SDS011;37795;53.236;5.704;2023-07-29T00:38:18;0.20;;;0.20;;
51718;SDS011;37795;53.236;5.704;2023-07-29T00:40:44;0.10;;;0.10;;
51718;SDS011;37795;53.236;5.704;2023-07-29T00:43:10;0.25;;;0.25;;
51718;SDS011;37795;53.236;5.704;2023-07-29T00:45:36;0.45;;;0.45;;
51718;SDS011;37795;53.236;5.704;2023-07-29T00:48:03;0.10;;;0.10;;
51718;SDS011;37795;53.236;5.704;2023-07-29T00:50:30;0.20;;;0.20;;
51718;SDS011;37795;53.236;5.704;2023-07-29T00:52:56;0.22;;;0.22;;
51718;SDS011;37795;53.236;5.704;2023-07-29T00:55:23;0.38;;;0.38;;
51718;SDS011;37795;53.236;5.704;2023-07-29T00:57:50;0.20;;;0.20;;
51718;SDS011;37795;53.236;5.704;2023-07-29T01:00:19;0.10;;;0.10;;
51718;SDS011;37795;53.236;5.704;2023-07-29T01:02:45;0.30;;;0.30;;
51718;SDS011;37795;53.236;5.704;2023-07-29T01:05:12;0.20;;;0.20;;
51718;SDS011;37795;53.236;5.704;2023-07-29T01:10:18;0.20;;;0.20;;
51718;SDS011;37795;53.236;5.704;2023-07-29T01:13:02;0.20;;;0.20;;
51718;SDS011;37795;53.236;5.704;2023-07-29T01:15:36;0.20;;;0.20;;
51718;SDS011;37795;53.236;5.704;2023-07-29T01:18:05;0.20;;;0.20;;
51718;SDS011;37795;53.236;5.704;2023-07-29T01:20:34;0.20;;;0.20;;
51718;SDS011;37795;53.236;5.704;2023-07-29T01:23:03;0.10;;;0.10;;
51718;SDS011;37795;53.236;5.704;2023-07-29T01:25:29;0.30;;;0.30;;
51718;SDS011;37795;53.236;5.704;2023-07-29T01:27:55;0.70;;;0.70;;
51718;SDS011;37795;53.236;5.704;2023-07-29T01:30:22;0.35;;;0.30;;
51718;SDS011;37795;53.236;5.704;2023-07-29T01:35:30;1.17;;;0.60;;
51718;SDS011;37795;53.236;5.704;2023-07-29T01:38:40;0.30;;;0.30;;
51718;SDS011;37795;53.236;5.704;2023-07-29T01:40:47;0.40;;;0.40;;
51718;SDS011;37795;53.236;5.704;2023-07-29T01:43:14;0.80;;;0.80;;
51718;SDS011;37795;53.236;5.704;2023-07-29T01:45:40;0.95;;;0.80;;
51718;SDS011;37795;53.236;5.704;2023-07-29T01:48:07;0.60;;;0.60;;
51718;SDS011;37795;53.236;5.704;2023-07-29T01:50:33;0.30;;;0.30;;
51718;SDS011;37795;53.236;5.704;2023-07-29T01:53:00;0.38;;;0.30;;
51718;SDS011;37795;53.236;5.704;2023-07-29T01:55:26;0.52;;;0.30;;
51718;SDS011;37795;53.236;5.704;2023-07-29T01:57:52;0.47;;;0.47;;
51718;SDS011;37795;53.236;5.704;2023-07-29T02:00:18;0.55;;;0.52;;
51718;SDS011;37795;53.236;5.704;2023-07-29T02:02:45;0.47;;;0.40;;
51718;SDS011;37795;53.236;5.704;2023-07-29T02:05:11;0.70;;;0.60;;
51718;SDS011;37795;53.236;5.704;2023-07-29T02:07:37;0.50;;;0.50;;
51718;SDS011;37795;53.236;5.704;2023-07-29T02:10:03;0.50;;;0.50;;
51718;SDS011;37795;53.236;5.704;2023-07-29T02:12:29;0.80;;;0.80;;
51718;SDS011;37795;53.236;5.704;2023-07-29T02:14:55;0.50;;;0.50;;
51718;SDS011;37795;53.236;5.704;2023-07-29T02:17:21;0.52;;;0.43;;
51718;SDS011;37795;53.236;5.704;2023-07-29T02:19:47;0.40;;;0.40;;
51718;SDS011;37795;53.236;5.704;2023-07-29T02:22:14;0.35;;;0.30;;
51718;SDS011;37795;53.236;5.704;2023-07-29T02:24:40;0.20;;;0.20;;
51718;SDS011;37795;53.236;5.704;2023-07-29T02:27:06;0.30;;;0.30;;
51718;SDS011;37795;53.236;5.704;2023-07-29T02:29:32;0.40;;;0.40;;
51718;SDS011;37795;53.236;5.704;2023-07-29T02:31:59;0.50;;;0.30;;
51718;SDS011;37795;53.236;5.704;2023-07-29T02:34:25;0.30;;;0.30;;
51718;SDS011;37795;53.236;5.704;2023-07-29T02:36:51;0.40;;;0.40;;
51718;SDS011;37795;53.236;5.704;2023-07-29T02:39:17;2.30;;;0.50;;
51718;SDS011;37795;53.236;5.704;2023-07-29T02:41:43;0.45;;;0.30;;
51718;SDS011;37795;53.236;5.704;2023-07-29T02:44:10;0.50;;;0.50;;
51718;SDS011;37795;53.236;5.704;2023-07-29T02:46:36;0.30;;;0.30;;
51718;SDS011;37795;53.236;5.704;2023-07-29T02:49:02;0.45;;;0.45;;
51718;SDS011;37795;53.236;5.704;2023-07-29T02:51:29;1.10;;;0.40;;
51718;SDS011;37795;53.236;5.704;2023-07-29T02:53:55;0.50;;;0.40;;
51718;SDS011;37795;53.236;5.704;2023-07-29T02:56:21;0.20;;;0.20;;
51718;SDS011;37795;53.236;5.704;2023-07-29T02:58:47;0.20;;;0.20;;
51718;SDS011;37795;53.236;5.704;2023-07-29T03:01:13;0.10;;;0.10;;
51718;SDS011;37795;53.236;5.704;2023-07-29T03:03:39;0.20;;;0.20;;
51718;SDS011;37795;53.236;5.704;2023-07-29T03:06:06;0.50;;;0.50;;
51718;SDS011;37795;53.236;5.704;2023-07-29T03:08:33;0.20;;;0.20;;
51718;SDS011;37795;53.236;5.704;2023-07-29T03:11:04;0.20;;;0.20;;
51718;SDS011;37795;53.236;5.704;2023-07-29T03:13:30;0.35;;;0.20;;
51718;SDS011;37795;53.236;5.704;2023-07-29T03:18:35;0.20;;;0.20;;
51718;SDS011;37795;53.236;5.704;2023-07-29T03:21:01;0.13;;;0.13;;
51718;SDS011;37795;53.236;5.704;2023-07-29T03:23:28;0.20;;;0.20;;
51718;SDS011;37795;53.236;5.704;2023-07-29T03:25:54;0.20;;;0.20;;
51718;SDS011;37795;53.236;5.704;2023-07-29T03:28:27;0.70;;;0.20;;
51718;SDS011;37795;53.236;5.704;2023-07-29T03:30:56;0.20;;;0.20;;
51718;SDS011;37795;53.236;5.704;2023-07-29T03:33:24;0.20;;;0.20;;
51718;SDS011;37795;53.236;5.704;2023-07-29T03:35:50;0.30;;;0.30;;
51718;SDS011;37795;53.236;5.704;2023-07-29T03:38:16;0.57;;;0.30;;
51718;SDS011;37795;53.236;5.704;2023-07-29T03:40:42;0.20;;;0.20;;
51718;SDS011;37795;53.236;5.704;2023-07-29T03:43:08;0.30;;;0.30;;
51718;SDS011;37795;53.236;5.704;2023-07-29T03:45:35;0.20;;;0.20;;
51718;SDS011;37795;53.236;5.704;2023-07-29T03:48:02;0.10;;;0.10;;
51718;SDS011;37795;53.236;5.704;2023-07-29T03:50:28;0.10;;;0.10;;
51718;SDS011;37795;53.236;5.704;2023-07-29T03:52:55;0.60;;;0.60;;
51718;SDS011;37795;53.236;5.704;2023-07-29T03:55:21;0.17;;;0.17;;
51718;SDS011;37795;53.236;5.704;2023-07-29T03:57:47;0.20;;;0.20;;
51718;SDS011;37795;53.236;5.704;2023-07-29T04:00:13;0.10;;;0.10;;
51718;SDS011;37795;53.236;5.704;2023-07-29T04:02:39;0.10;;;0.10;;
51718;SDS011;37795;53.236;5.704;2023-07-29T04:05:05;0.20;;;0.20;;
51718;SDS011;37795;53.236;5.704;2023-07-29T04:07:33;0.20;;;0.20;;
51718;SDS011;37795;53.236;5.704;2023-07-29T04:10:00;0.20;;;0.20;;
51718;SDS011;37795;53.236;5.704;2023-07-29T04:12:26;0.10;;;0.10;;
51718;SDS011;37795;53.236;5.704;2023-07-29T04:14:52;0.10;;;0.10;;
51718;SDS011;37795;53.236;5.704;2023-07-29T04:17:18;0.10;;;0.10;;
51718;SDS011;37795;53.236;5.704;2023-07-29T04:19:44;0.10;;;0.10;;
51718;SDS011;37795;53.236;5.704;2023-07-29T04:22:10;0.10;;;0.10;;
51718;SDS011;37795;53.236;5.704;2023-07-29T04:24:37;0.10;;;0.10;;
51718;SDS011;37795;53.236;5.704;2023-07-29T04:27:03;0.20;;;0.20;;
51718;SDS011;37795;53.236;5.704;2023-07-29T04:29:29;0.40;;;0.40;;
51718;SDS011;37795;53.236;5.704;2023-07-29T04:31:55;0.20;;;0.20;;
51718;SDS011;37795;53.236;5.704;2023-07-29T04:34:22;0.30;;;0.30;;
51718;SDS011;37795;53.236;5.704;2023-07-29T04:36:48;0.10;;;0.10;;
51718;SDS011;37795;53.236;5.704;2023-07-29T04:39:14;0.10;;;0.10;;
51718;SDS011;37795;53.236;5.704;2023-07-29T04:41:40;0.10;;;0.10;;
51718;SDS011;37795;53.236;5.704;2023-07-29T04:44:06;0.10;;;0.10;;
51718;SDS011;37795;53.236;5.704;2023-07-29T04:46:32;0.10;;;0.10;;
51718;SDS011;37795;53.236;5.704;2023-07-29T04:48:59;0.17;;;0.17;;
51718;SDS011;37795;53.236;5.704;2023-07-29T04:51:25;0.10;;;0.10;;
51718;SDS011;37795;53.236;5.704;2023-07-29T04:53:51;0.20;;;0.20;;
51718;SDS011;37795;53.236;5.704;2023-07-29T04:56:17;0.20;;;0.20;;
51718;SDS011;37795;53.236;5.704;2023-07-29T04:58:43;0.30;;;0.30;;
51718;SDS011;37795;53.236;5.704;2023-07-29T05:01:09;0.20;;;0.20;;
51718;SDS011;37795;53.236;5.704;2023-07-29T05:03:35;0.20;;;0.20;;
51718;SDS011;37795;53.236;5.704;2023-07-29T05:06:02;0.10;;;0.10;;
51718;SDS011;37795;53.236;5.704;2023-07-29T05:08:28;0.20;;;0.20;;
51718;SDS011;37795;53.236;5.704;2023-07-29T05:10:54;0.30;;;0.20;;
51718;SDS011;37795;53.236;5.704;2023-07-29T05:13:21;0.10;;;0.10;;
51718;SDS011;37795;53.236;5.704;2023-07-29T05:15:47;0.10;;;0.10;;
51718;SDS011;37795;53.236;5.704;2023-07-29T05:18:14;0.10;;;0.10;;
51718;SDS011;37795;53.236;5.704;2023-07-29T05:20:40;0.30;;;0.30;;
51718;SDS011;37795;53.236;5.704;2023-07-29T05:23:06;0.17;;;0.17;;
51718;SDS011;37795;53.236;5.704;2023-07-29T05:25:32;0.20;;;0.20;;
51718;SDS011;37795;53.236;5.704;2023-07-29T05:28:01;0.20;;;0.20;;
51718;SDS011;37795;53.236;5.704;2023-07-29T05:30:28;0.20;;;0.20;;
51718;SDS011;37795;53.236;5.704;2023-07-29T05:32:56;0.70;;;0.30;;
51718;SDS011;37795;53.236;5.704;2023-07-29T05:35:22;0.70;;;0.30;;
51718;SDS011;37795;53.236;5.704;2023-07-29T05:37:48;0.40;;;0.40;;
51718;SDS011;37795;53.236;5.704;2023-07-29T05:40:14;0.20;;;0.20;;
51718;SDS011;37795;53.236;5.704;2023-07-29T05:42:40;0.20;;;0.20;;
51718;SDS011;37795;53.236;5.704;2023-07-29T05:45:07;0.20;;;0.20;;
51718;SDS011;37795;53.236;5.704;2023-07-29T05:47:33;0.20;;;0.20;;
51718;SDS011;37795;53.236;5.704;2023-07-29T05:49:59;0.40;;;0.40;;
51718;SDS011;37795;53.236;5.704;2023-07-29T05:52:29;0.30;;;0.30;;
51718;SDS011;37795;53.236;5.704;2023-07-29T05:54:55;0.20;;;0.20;;
51718;SDS011;37795;53.236;5.704;2023-07-29T05:57:21;0.25;;;0.25;;
51718;SDS011;37795;53.236;5.704;2023-07-29T05:59:47;0.30;;;0.30;;
51718;SDS011;37795;53.236;5.704;2023-07-29T06:02:13;0.40;;;0.40;;
51718;SDS011;37795;53.236;5.704;2023-07-29T06:04:39;1.20;;;0.37;;
51718;SDS011;37795;53.236;5.704;2023-07-29T06:07:06;0.20;;;0.20;;
51718;SDS011;37795;53.236;5.704;2023-07-29T06:09:32;0.20;;;0.20;;
51718;SDS011;37795;53.236;5.704;2023-07-29T06:11:58;0.45;;;0.45;;
51718;SDS011;37795;53.236;5.704;2023-07-29T06:14:24;0.20;;;0.20;;
51718;SDS011;37795;53.236;5.704;2023-07-29T06:16:50;0.30;;;0.30;;
51718;SDS011;37795;53.236;5.704;2023-07-29T06:19:17;0.40;;;0.40;;
51718;SDS011;37795;53.236;5.704;2023-07-29T06:21:43;0.20;;;0.20;;
51718;SDS011;37795;53.236;5.704;2023-07-29T06:24:09;0.30;;;0.30;;
51718;SDS011;37795;53.236;5.704;2023-07-29T06:26:35;0.30;;;0.30;;
51718;SDS011;37795;53.236;5.704;2023-07-29T06:29:01;0.47;;;0.43;;
51718;SDS011;37795;53.236;5.704;2023-07-29T06:31:27;1.88;;;0.60;;
51718;SDS011;37795;53.236;5.704;2023-07-29T06:33:54;0.57;;;0.57;;
51718;SDS011;37795;53.236;5.704;2023-07-29T06:36:20;0.30;;;0.30;;
51718;SDS011;37795;53.236;5.704;2023-07-29T06:38:47;0.20;;;0.20;;
51718;SDS011;37795;53.236;5.704;2023-07-29T06:41:13;0.45;;;0.45;;
51718;SDS011;37795;53.236;5.704;2023-07-29T06:43:39;0.60;;;0.60;;
51718;SDS011;37795;53.236;5.704;2023-07-29T06:46:05;0.60;;;0.60;;
51718;SDS011;37795;53.236;5.704;2023-07-29T06:54:58;0.70;;;0.70;;
51718;SDS011;37795;53.236;5.704;2023-07-29T06:57:24;0.63;;;0.63;;
51718;SDS011;37795;53.236;5.704;2023-07-29T06:59:50;0.40;;;0.40;;
51718;SDS011;37795;53.236;5.704;2023-07-29T07:02:16;0.38;;;0.38;;
51718;SDS011;37795;53.236;5.704;2023-07-29T07:04:42;0.43;;;0.43;;
51718;SDS011;37795;53.236;5.704;2023-07-29T07:07:09;0.60;;;0.60;;
51718;SDS011;37795;53.236;5.704;2023-07-29T07:09:35;0.65;;;0.65;;
51718;SDS011;37795;53.236;5.704;2023-07-29T07:12:01;1.65;;;0.40;;
51718;SDS011;37795;53.236;5.704;2023-07-29T07:14:27;2.58;;;1.17;;
51718;SDS011;37795;53.236;5.704;2023-07-29T07:16:53;0.90;;;0.90;;
51718;SDS011;37795;53.236;5.704;2023-07-29T07:19:19;1.45;;;1.00;;
51718;SDS011;37795;53.236;5.704;2023-07-29T07:21:45;5.03;;;0.60;;
51718;SDS011;37795;53.236;5.704;2023-07-29T07:24:11;0.60;;;0.50;;
51718;SDS011;37795;53.236;5.704;2023-07-29T07:26:38;1.45;;;1.10;;
51718;SDS011;37795;53.236;5.704;2023-07-29T07:29:04;0.50;;;0.50;;
51718;SDS011;37795;53.236;5.704;2023-07-29T07:31:32;0.52;;;0.52;;
51718;SDS011;37795;53.236;5.704;2023-07-29T07:34:00;0.68;;;0.47;;
51718;SDS011;37795;53.236;5.704;2023-07-29T07:36:27;0.65;;;0.52;;
51718;SDS011;37795;53.236;5.704;2023-07-29T07:38:53;0.47;;;0.47;;
51718;SDS011;37795;53.236;5.704;2023-07-29T07:41:19;1.15;;;1.05;;
51718;SDS011;37795;53.236;5.704;2023-07-29T07:43:45;0.43;;;0.43;;
51718;SDS011;37795;53.236;5.704;2023-07-29T07:46:11;0.77;;;0.63;;
51718;SDS011;37795;53.236;5.704;2023-07-29T07:48:37;0.65;;;0.60;;
51718;SDS011;37795;53.236;5.704;2023-07-29T07:53:30;0.95;;;0.88;;
51718;SDS011;37795;53.236;5.704;2023-07-29T07:55:56;0.63;;;0.60;;
51718;SDS011;37795;53.236;5.704;2023-07-29T07:58:22;1.40;;;0.73;;
51718;SDS011;37795;53.236;5.704;2023-07-29T08:00:48;0.45;;;0.45;;
51718;SDS011;37795;53.236;5.704;2023-07-29T08:03:14;0.75;;;0.60;;
51718;SDS011;37795;53.236;5.704;2023-07-29T08:05:40;1.27;;;1.17;;
51718;SDS011;37795;53.236;5.704;2023-07-29T08:08:06;1.27;;;1.00;;
51718;SDS011;37795;53.236;5.704;2023-07-29T08:10:32;1.00;;;0.93;;
51718;SDS011;37795;53.236;5.704;2023-07-29T08:12:59;0.73;;;0.73;;
51718;SDS011;37795;53.236;5.704;2023-07-29T08:15:25;3.22;;;0.85;;
51718;SDS011;37795;53.236;5.704;2023-07-29T08:17:51;0.70;;;0.68;;
51718;SDS011;37795;53.236;5.704;2023-07-29T08:20:17;0.60;;;0.45;;
51718;SDS011;37795;53.236;5.704;2023-07-29T08:22:43;0.93;;;0.93;;
51718;SDS011;37795;53.236;5.704;2023-07-29T08:25:09;0.80;;;0.80;;
51718;SDS011;37795;53.236;5.704;2023-07-29T08:27:35;0.47;;;0.47;;
51718;SDS011;37795;53.236;5.704;2023-07-29T08:30:01;5.00;;;1.10;;
51718;SDS011;37795;53.236;5.704;2023-07-29T08:32:27;0.85;;;0.82;;
51718;SDS011;37795;53.236;5.704;2023-07-29T08:34:53;0.77;;;0.77;;
51718;SDS011;37795;53.236;5.704;2023-07-29T08:37:19;0.60;;;0.60;;
51718;SDS011;37795;53.236;5.704;2023-07-29T08:42:12;1.52;;;0.90;;
51718;SDS011;37795;53.236;5.704;2023-07-29T08:47:04;0.60;;;0.60;;
51718;SDS011;37795;53.236;5.704;2023-07-29T08:49:30;1.45;;;1.35;;
51718;SDS011;37795;53.236;5.704;2023-07-29T08:51:56;4.47;;;1.63;;
51718;SDS011;37795;53.236;5.704;2023-07-29T08:54:23;5.10;;;1.02;;
51718;SDS011;37795;53.236;5.704;2023-07-29T08:56:49;2.13;;;1.38;;
51718;SDS011;37795;53.236;5.704;2023-07-29T08:59:16;0.93;;;0.68;;
51718;SDS011;37795;53.236;5.704;2023-07-29T09:01:42;0.55;;;0.55;;
51718;SDS011;37795;53.236;5.704;2023-07-29T09:04:08;0.60;;;0.60;;
51718;SDS011;37795;53.236;5.704;2023-07-29T09:06:35;0.93;;;0.85;;
51718;SDS011;37795;53.236;5.704;2023-07-29T09:09:03;1.48;;;1.05;;
51718;SDS011;37795;53.236;5.704;2023-07-29T09:11:30;0.47;;;0.40;;
51718;SDS011;37795;53.236;5.704;2023-07-29T09:13:56;1.27;;;1.08;;
51718;SDS011;37795;53.236;5.704;2023-07-29T09:16:22;0.70;;;0.70;;
51718;SDS011;37795;53.236;5.704;2023-07-29T09:18:49;0.47;;;0.47;;
51718;SDS011;37795;53.236;5.704;2023-07-29T09:21:16;0.70;;;0.70;;
51718;SDS011;37795;53.236;5.704;2023-07-29T09:23:43;0.45;;;0.45;;
51718;SDS011;37795;53.236;5.704;2023-07-29T09:26:10;0.45;;;0.45;;
51718;SDS011;37795;53.236;5.704;2023-07-29T09:28:38;1.17;;;0.82;;
51718;SDS011;37795;53.236;5.704;2023-07-29T09:31:05;1.25;;;1.25;;
51718;SDS011;37795;53.236;5.704;2023-07-29T09:33:35;0.57;;;0.57;;
51718;SDS011;37795;53.236;5.704;2023-07-29T09:36:02;0.73;;;0.73;;
51718;SDS011;37795;53.236;5.704;2023-07-29T09:38:29;0.43;;;0.43;;
51718;SDS011;37795;53.236;5.704;2023-07-29T09:40:56;0.55;;;0.55;;
51718;SDS011;37795;53.236;5.704;2023-07-29T09:43:33;1.02;;;0.93;;
51718;SDS011;37795;53.236;5.704;2023-07-29T09:46:03;0.75;;;0.75;;
51718;SDS011;37795;53.236;5.704;2023-07-29T09:48:32;0.98;;;0.88;;
51718;SDS011;37795;53.236;5.704;2023-07-29T09:50:58;0.55;;;0.55;;
51718;SDS011;37795;53.236;5.704;2023-07-29T09:53:25;0.45;;;0.45;;
51718;SDS011;37795;53.236;5.704;2023-07-29T09:55:51;0.50;;;0.50;;
51718;SDS011;37795;53.236;5.704;2023-07-29T09:58:27;0.60;;;0.60;;
51718;SDS011;37795;53.236;5.704;2023-07-29T10:00:54;2.25;;;0.93;;
51718;SDS011;37795;53.236;5.704;2023-07-29T10:03:20;0.38;;;0.38;;
51718;SDS011;37795;53.236;5.704;2023-07-29T10:05:47;1.05;;;1.00;;
51718;SDS011;37795;53.236;5.704;2023-07-29T10:08:13;0.60;;;0.60;;
51718;SDS011;37795;53.236;5.704;2023-07-29T10:10:43;0.63;;;0.52;;
51718;SDS011;37795;53.236;5.704;2023-07-29T10:13:09;1.17;;;1.05;;
51718;SDS011;37795;53.236;5.704;2023-07-29T10:15:36;1.17;;;0.52;;
51718;SDS011;37795;53.236;5.704;2023-07-29T10:18:02;0.77;;;0.65;;
51718;SDS011;37795;53.236;5.704;2023-07-29T10:22:54;0.73;;;0.73;;
51718;SDS011;37795;53.236;5.704;2023-07-29T10:25:22;1.00;;;0.55;;
51718;SDS011;37795;53.236;5.704;2023-07-29T10:30:14;1.35;;;0.63;;
51718;SDS011;37795;53.236;5.704;2023-07-29T10:32:41;0.80;;;0.80;;
51718;SDS011;37795;53.236;5.704;2023-07-29T10:35:09;0.88;;;0.88;;
51718;SDS011;37795;53.236;5.704;2023-07-29T10:40:01;1.08;;;0.75;;
51718;SDS011;37795;53.236;5.704;2023-07-29T10:42:31;0.70;;;0.68;;
51718;SDS011;37795;53.236;5.704;2023-07-29T10:44:57;0.60;;;0.60;;
51718;SDS011;37795;53.236;5.704;2023-07-29T10:47:27;1.13;;;1.13;;
51718;SDS011;37795;53.236;5.704;2023-07-29T10:54:58;0.82;;;0.65;;
51718;SDS011;37795;53.236;5.704;2023-07-29T10:57:35;0.98;;;0.98;;
51718;SDS011;37795;53.236;5.704;2023-07-29T11:02:32;0.73;;;0.70;;
51718;SDS011;37795;53.236;5.704;2023-07-29T11:04:58;0.90;;;0.70;;
51718;SDS011;37795;53.236;5.704;2023-07-29T11:07:26;0.70;;;0.55;;
51718;SDS011;37795;53.236;5.704;2023-07-29T11:09:53;0.77;;;0.77;;
51718;SDS011;37795;53.236;5.704;2023-07-29T11:15:00;1.67;;;1.10;;
51718;SDS011;37795;53.236;5.704;2023-07-29T11:17:29;0.60;;;0.60;;
51718;SDS011;37795;53.236;5.704;2023-07-29T11:19:56;1.15;;;1.05;;
51718;SDS011;37795;53.236;5.704;2023-07-29T11:22:25;0.60;;;0.60;;
51718;SDS011;37795;53.236;5.704;2023-07-29T11:24:51;1.20;;;1.10;;
51718;SDS011;37795;53.236;5.704;2023-07-29T11:27:17;1.85;;;1.15;;
51718;SDS011;37795;53.236;5.704;2023-07-29T11:29:43;0.60;;;0.60;;
51718;SDS011;37795;53.236;5.704;2023-07-29T11:32:09;0.45;;;0.45;;
51718;SDS011;37795;53.236;5.704;2023-07-29T11:34:36;1.25;;;0.90;;
51718;SDS011;37795;53.236;5.704;2023-07-29T11:37:02;2.70;;;1.00;;
51718;SDS011;37795;53.236;5.704;2023-07-29T11:39:28;0.75;;;0.75;;
51718;SDS011;37795;53.236;5.704;2023-07-29T11:41:54;0.65;;;0.65;;
51718;SDS011;37795;53.236;5.704;2023-07-29T11:44:20;0.82;;;0.73;;
51718;SDS011;37795;53.236;5.704;2023-07-29T11:46:46;0.93;;;0.88;;
51718;SDS011;37795;53.236;5.704;2023-07-29T11:49:13;2.17;;;1.25;;
51718;SDS011;37795;53.236;5.704;2023-07-29T11:54:06;0.50;;;0.50;;
51718;SDS011;37795;53.236;5.704;2023-07-29T11:56:32;0.73;;;0.73;;
51718;SDS011;37795;53.236;5.704;2023-07-29T11:58:58;1.30;;;1.20;;
51718;SDS011;37795;53.236;5.704;2023-07-29T12:01:24;0.77;;;0.73;;
51718;SDS011;37795;53.236;5.704;2023-07-29T12:03:50;0.60;;;0.60;;
51718;SDS011;37795;53.236;5.704;2023-07-29T12:06:16;0.65;;;0.35;;
51718;SDS011;37795;53.236;5.704;2023-07-29T12:08:43;2.42;;;0.75;;
51718;SDS011;37795;53.236;5.704;2023-07-29T12:11:09;0.80;;;0.70;;
51718;SDS011;37795;53.236;5.704;2023-07-29T12:13:38;0.65;;;0.65;;
51718;SDS011;37795;53.236;5.704;2023-07-29T12:16:04;1.83;;;1.17;;
51718;SDS011;37795;53.236;5.704;2023-07-29T12:18:34;0.90;;;0.40;;
51718;SDS011;37795;53.236;5.704;2023-07-29T12:21:00;0.95;;;0.95;;
51718;SDS011;37795;53.236;5.704;2023-07-29T12:23:26;1.05;;;1.05;;
51718;SDS011;37795;53.236;5.704;2023-07-29T12:25:56;0.95;;;0.80;;
51718;SDS011;37795;53.236;5.704;2023-07-29T12:28:22;0.60;;;0.60;;
51718;SDS011;37795;53.236;5.704;2023-07-29T12:30:55;1.73;;;1.02;;
51718;SDS011;37795;53.236;5.704;2023-07-29T12:33:31;0.85;;;0.85;;
51718;SDS011;37795;53.236;5.704;2023-07-29T12:35:57;0.60;;;0.60;;
51718;SDS011;37795;53.236;5.704;2023-07-29T12:38:25;1.02;;;0.93;;
51718;SDS011;37795;53.236;5.704;2023-07-29T12:40:52;0.93;;;0.75;;
51718;SDS011;37795;53.236;5.704;2023-07-29T12:43:18;1.13;;;0.75;;
51718;SDS011;37795;53.236;5.704;2023-07-29T12:45:44;0.82;;;0.82;;
51718;SDS011;37795;53.236;5.704;2023-07-29T12:48:11;0.40;;;0.40;;
51718;SDS011;37795;53.236;5.704;2023-07-29T12:50:37;1.38;;;1.02;;
51718;SDS011;37795;53.236;5.704;2023-07-29T12:53:07;2.63;;;0.85;;
51718;SDS011;37795;53.236;5.704;2023-07-29T12:55:33;1.90;;;1.00;;
51718;SDS011;37795;53.236;5.704;2023-07-29T12:57:59;3.45;;;1.60;;
51718;SDS011;37795;53.236;5.704;2023-07-29T13:00:26;1.13;;;1.13;;
51718;SDS011;37795;53.236;5.704;2023-07-29T13:02:52;1.00;;;1.00;;
51718;SDS011;37795;53.236;5.704;2023-07-29T13:05:18;1.42;;;1.33;;
51718;SDS011;37795;53.236;5.704;2023-07-29T13:07:44;1.25;;;0.95;;
51718;SDS011;37795;53.236;5.704;2023-07-29T13:10:10;3.08;;;1.30;;
51718;SDS011;37795;53.236;5.704;2023-07-29T13:15:02;3.22;;;2.00;;
51718;SDS011;37795;53.236;5.704;2023-07-29T13:17:28;4.57;;;1.80;;
51718;SDS011;37795;53.236;5.704;2023-07-29T13:19:54;1.80;;;1.00;;
51718;SDS011;37795;53.236;5.704;2023-07-29T13:22:21;1.52;;;1.00;;
51718;SDS011;37795;53.236;5.704;2023-07-29T13:24:47;0.80;;;0.80;;
51718;SDS011;37795;53.236;5.704;2023-07-29T13:27:13;0.60;;;0.60;;
51718;SDS011;37795;53.236;5.704;2023-07-29T13:29:39;2.53;;;0.90;;
51718;SDS011;37795;53.236;5.704;2023-07-29T13:32:06;1.30;;;0.63;;
51718;SDS011;37795;53.236;5.704;2023-07-29T13:34:32;1.52;;;1.20;;
51718;SDS011;37795;53.236;5.704;2023-07-29T13:36:59;0.98;;;0.90;;
51718;SDS011;37795;53.236;5.704;2023-07-29T13:41:52;1.23;;;1.13;;
51718;SDS011;37795;53.236;5.704;2023-07-29T13:44:18;1.55;;;1.45;;
51718;SDS011;37795;53.236;5.704;2023-07-29T13:46:44;1.25;;;0.80;;
51718;SDS011;37795;53.236;5.704;2023-07-29T13:49:11;0.70;;;0.70;;
51718;SDS011;37795;53.236;5.704;2023-07-29T13:51:37;0.93;;;0.88;;
51718;SDS011;37795;53.236;5.704;2023-07-29T13:54:03;1.70;;;1.60;;
51718;SDS011;37795;53.236;5.704;2023-07-29T13:56:29;0.85;;;0.85;;
51718;SDS011;37795;53.236;5.704;2023-07-29T14:01:21;0.52;;;0.50;;
51718;SDS011;37795;53.236;5.704;2023-07-29T14:03:47;5.07;;;1.60;;
51718;SDS011;37795;53.236;5.704;2023-07-29T14:06:13;1.60;;;1.50;;
51718;SDS011;37795;53.236;5.704;2023-07-29T14:08:39;1.15;;;0.90;;
51718;SDS011;37795;53.236;5.704;2023-07-29T14:11:06;2.58;;;1.75;;
51718;SDS011;37795;53.236;5.704;2023-07-29T14:16:02;0.88;;;0.88;;
51718;SDS011;37795;53.236;5.704;2023-07-29T14:18:28;1.20;;;1.10;;
51718;SDS011;37795;53.236;5.704;2023-07-29T14:20:55;0.98;;;0.77;;
51718;SDS011;37795;53.236;5.704;2023-07-29T14:23:21;0.85;;;0.85;;
51718;SDS011;37795;53.236;5.704;2023-07-29T14:25:47;0.90;;;0.90;;
51718;SDS011;37795;53.236;5.704;2023-07-29T14:28:13;1.50;;;1.10;;
51718;SDS011;37795;53.236;5.704;2023-07-29T14:32:37;41.80;;;4.57;;
51718;SDS011;37795;53.236;5.704;2023-07-29T14:35:03;14.25;;;2.13;;
51718;SDS011;37795;53.236;5.704;2023-07-29T14:37:30;6.07;;;2.42;;
51718;SDS011;37795;53.236;5.704;2023-07-29T14:40:00;7.75;;;2.67;;
51718;SDS011;37795;53.236;5.704;2023-07-29T14:42:26;5.05;;;2.42;;
51718;SDS011;37795;53.236;5.704;2023-07-29T14:44:52;3.47;;;2.47;;
51718;SDS011;37795;53.236;5.704;2023-07-29T14:49:44;3.47;;;2.45;;
51718;SDS011;37795;53.236;5.704;2023-07-29T14:52:10;7.25;;;2.40;;
51718;SDS011;37795;53.236;5.704;2023-07-29T14:54:36;3.40;;;2.03;;
51718;SDS011;37795;53.236;5.704;2023-07-29T14:57:02;7.55;;;3.22;;
51718;SDS011;37795;53.236;5.704;2023-07-29T14:59:30;4.72;;;2.30;;
51718;SDS011;37795;53.236;5.704;2023-07-29T15:01:55;6.40;;;3.33;;
51718;SDS011;37795;53.236;5.704;2023-07-29T15:04:21;10.57;;;2.53;;
51718;SDS011;37795;53.236;5.704;2023-07-29T15:06:47;4.93;;;1.98;;
51718;SDS011;37795;53.236;5.704;2023-07-29T15:09:13;3.88;;;1.98;;
51718;SDS011;37795;53.236;5.704;2023-07-29T15:11:38;2.92;;;2.53;;
51718;SDS011;37795;53.236;5.704;2023-07-29T15:14:05;4.22;;;2.78;;
51718;SDS011;37795;53.236;5.704;2023-07-29T15:16:31;3.85;;;2.30;;
51718;SDS011;37795;53.236;5.704;2023-07-29T15:18:59;4.15;;;2.53;;
51718;SDS011;37795;53.236;5.704;2023-07-29T15:21:24;3.00;;;2.33;;
51718;SDS011;37795;53.236;5.704;2023-07-29T15:23:50;4.47;;;1.90;;
51718;SDS011;37795;53.236;5.704;2023-07-29T15:26:16;3.00;;;2.13;;
51718;SDS011;37795;53.236;5.704;2023-07-29T15:28:42;4.90;;;2.15;;
51718;SDS011;37795;53.236;5.704;2023-07-29T15:31:07;2.65;;;1.88;;
51718;SDS011;37795;53.236;5.704;2023-07-29T15:33:33;4.85;;;1.80;;
51718;SDS011;37795;53.236;5.704;2023-07-29T15:36:02;3.75;;;1.90;;
51718;SDS011;37795;53.236;5.704;2023-07-29T15:38:27;4.20;;;1.98;;
51718;SDS011;37795;53.236;5.704;2023-07-29T15:40:53;2.60;;;1.92;;